createdAt,value
2017-12-05T00:00:11.422Z,20.60
2017-12-05T00:01:11.443Z,20.90
2017-12-05T00:02:11.458Z,19.80
2017-12-05T00:03:11.474Z,20.70
2017-12-05T00:04:11.494Z,21.60
2017-12-05T00:05:11.510Z,20.90
2017-12-05T00:06:11.529Z,19.10
2017-12-05T00:07:11.548Z,19.60
2017-12-05T00:08:11.563Z,21.50
2017-12-05T00:09:11.582Z,20.10
2017-12-05T00:10:11.601Z,20.90
2017-12-05T00:11:11.616Z,19.10
2017-12-05T00:12:11.634Z,19.50
2017-12-05T00:13:11.652Z,19.70
2017-12-05T00:14:11.669Z,19.80
2017-12-05T00:15:11.687Z,20.70
2017-12-05T00:16:11.704Z,20.30
2017-12-05T00:17:11.723Z,21.60
2017-12-05T00:18:11.740Z,20.50
2017-12-05T00:19:11.755Z,21.20
2017-12-05T00:20:11.775Z,21.90
2017-12-05T00:21:11.792Z,21.00
2017-12-05T00:22:11.810Z,21.90
2017-12-05T00:23:11.827Z,21.50
2017-12-05T00:24:11.844Z,20.90
2017-12-05T00:25:11.863Z,21.90
2017-12-05T00:26:11.880Z,23.60
2017-12-05T00:27:11.896Z,22.40
2017-12-05T00:28:11.915Z,22.20
2017-12-05T00:29:11.932Z,24.60
2017-12-05T00:30:11.950Z,23.90
2017-12-05T00:31:11.967Z,23.40
2017-12-05T00:32:11.985Z,23.00
2017-12-05T00:33:12.003Z,23.70
2017-12-05T00:34:12.021Z,25.90
2017-12-05T00:35:12.037Z,23.70
2017-12-05T00:36:12.056Z,24.80
2017-12-05T00:37:12.071Z,24.70
2017-12-05T00:38:12.090Z,26.60
2017-12-05T00:39:12.106Z,24.20
2017-12-05T00:40:12.125Z,26.40
2017-12-05T00:41:12.143Z,27.50
2017-12-05T00:42:12.160Z,26.40
2017-12-05T00:43:12.177Z,25.10
2017-12-05T00:44:12.195Z,25.90
2017-12-05T00:45:12.213Z,26.20
2017-12-05T00:46:12.232Z,27.50
2017-12-05T00:47:12.247Z,28.50
2017-12-05T00:48:12.265Z,27.10
2017-12-05T00:49:12.282Z,27.60
2017-12-05T00:50:12.302Z,26.40
2017-12-05T00:51:12.317Z,26.70
2017-12-05T00:52:12.336Z,27.30
2017-12-05T00:53:12.353Z,27.40
2017-12-05T00:54:12.372Z,29.40
2017-12-05T00:55:12.387Z,29.60
2017-12-05T00:56:12.404Z,28.30
2017-12-05T00:57:12.425Z,27.20
2017-12-05T00:58:12.441Z,27.30
2017-12-05T00:59:12.465Z,27.90
2017-12-05T01:00:12.475Z,27.30
2017-12-05T01:01:12.492Z,26.70
2017-12-05T01:02:12.511Z,26.90
2017-12-05T01:03:12.531Z,28.70
2017-12-05T01:04:12.545Z,27.60
2017-12-05T01:05:12.576Z,27.70
2017-12-05T01:06:12.580Z,28.30
2017-12-05T01:07:12.596Z,26.20
2017-12-05T01:08:12.614Z,28.20
2017-12-05T01:09:12.632Z,28.40
2017-12-05T01:10:12.652Z,27.90
2017-12-05T01:11:12.667Z,27.30
2017-12-05T01:12:12.684Z,27.80
2017-12-05T01:13:12.702Z,28.90
2017-12-05T01:14:12.721Z,28.40
2017-12-05T01:15:12.738Z,29.00
2017-12-05T01:16:12.754Z,30.50
2017-12-05T01:17:12.771Z,28.10
2017-12-05T01:18:12.790Z,28.90
2017-12-05T01:19:12.806Z,29.00
2017-12-05T01:20:12.825Z,30.20
2017-12-05T01:21:12.842Z,29.50
2017-12-05T01:22:12.860Z,29.50
2017-12-05T01:23:12.878Z,31.70
2017-12-05T01:24:12.898Z,31.40
2017-12-05T01:25:12.913Z,31.10
2017-12-05T01:26:12.930Z,31.20
2017-12-05T01:27:12.947Z,32.30
2017-12-05T01:28:12.965Z,33.30
2017-12-05T01:29:12.983Z,33.30
2017-12-05T01:30:13.001Z,32.60
2017-12-05T01:31:13.017Z,33.10
2017-12-05T01:32:13.034Z,36.20
2017-12-05T01:33:13.053Z,36.40
2017-12-05T01:34:13.071Z,35.70
2017-12-05T01:35:13.088Z,36.60
2017-12-05T01:36:13.108Z,36.00
2017-12-05T01:37:13.123Z,36.00
2017-12-05T01:38:13.141Z,36.30
2017-12-05T01:39:13.157Z,37.10
2017-12-05T01:40:13.175Z,35.00
2017-12-05T01:41:13.193Z,37.20
2017-12-05T01:42:13.211Z,39.40
2017-12-05T01:43:13.378Z,38.20
2017-12-05T01:44:13.244Z,37.50
2017-12-05T01:45:13.268Z,36.10
2017-12-05T01:46:13.280Z,39.20
2017-12-05T01:47:13.296Z,38.80
2017-12-05T01:48:13.315Z,37.60
2017-12-05T01:49:13.331Z,39.20
2017-12-05T01:50:13.350Z,40.90
2017-12-05T01:51:13.392Z,38.60
2017-12-05T01:52:13.384Z,38.80
2017-12-05T01:53:13.402Z,40.10
2017-12-05T01:54:13.420Z,39.90
2017-12-05T01:55:13.436Z,40.50
2017-12-05T01:56:13.454Z,39.10
2017-12-05T01:57:13.472Z,40.30
2017-12-05T01:58:13.491Z,40.60
2017-12-05T01:59:13.507Z,39.50
2017-12-05T02:00:13.523Z,39.80
2017-12-05T02:01:13.541Z,37.80
2017-12-05T02:02:13.565Z,41.00
2017-12-05T02:03:13.575Z,41.40
2017-12-05T02:04:13.593Z,40.90
2017-12-05T02:05:13.611Z,38.60
2017-12-05T02:06:13.628Z,39.70
2017-12-05T02:07:13.658Z,40.40
2017-12-05T02:08:13.665Z,40.20
2017-12-05T02:09:13.832Z,38.90
2017-12-05T02:10:13.698Z,40.70
2017-12-05T02:11:13.715Z,38.80
2017-12-05T02:12:13.732Z,40.70
2017-12-05T02:13:13.751Z,41.30
2017-12-05T02:14:13.767Z,41.00
2017-12-05T02:15:13.783Z,39.80
2017-12-05T02:16:13.801Z,41.70
2017-12-05T02:17:13.819Z,39.80
2017-12-05T02:18:13.838Z,40.20
2017-12-05T02:19:13.853Z,40.90
2017-12-05T02:20:13.873Z,39.60
2017-12-05T02:21:13.889Z,39.80
2017-12-05T02:22:13.906Z,39.80
2017-12-05T02:23:13.923Z,39.70
2017-12-05T02:24:13.941Z,39.60
2017-12-05T02:25:13.958Z,39.60
2017-12-05T02:26:13.976Z,38.70
2017-12-05T02:27:13.993Z,37.60
2017-12-05T02:28:14.010Z,38.70
2017-12-05T02:29:14.028Z,39.90
2017-12-05T02:30:14.046Z,40.30
2017-12-05T02:31:14.061Z,39.20
2017-12-05T02:32:14.080Z,39.00
2017-12-05T02:33:14.099Z,38.00
2017-12-05T02:34:14.114Z,38.20
2017-12-05T02:35:14.131Z,39.50
2017-12-05T02:36:14.150Z,40.30
2017-12-05T02:37:14.167Z,39.30
2017-12-05T02:38:14.186Z,38.80
2017-12-05T02:39:15.503Z,39.50
2017-12-05T02:40:14.268Z,38.00
2017-12-05T02:41:14.238Z,39.90
2017-12-05T02:42:14.253Z,39.90
2017-12-05T02:43:14.270Z,41.30
2017-12-05T02:44:14.287Z,39.90
2017-12-05T02:45:14.305Z,38.60
2017-12-05T02:46:14.323Z,38.70
2017-12-05T02:47:14.340Z,39.60
2017-12-05T02:48:14.357Z,38.40
2017-12-05T02:49:14.373Z,38.40
2017-12-05T02:50:14.392Z,38.70
2017-12-05T02:51:14.409Z,38.50
2017-12-05T02:52:14.430Z,40.30
2017-12-05T02:53:14.443Z,38.20
2017-12-05T02:54:14.462Z,39.40
2017-12-05T02:55:14.477Z,38.50
2017-12-05T02:56:14.495Z,37.40
2017-12-05T02:57:14.820Z,37.60
2017-12-05T02:58:14.530Z,38.10
2017-12-05T02:59:14.548Z,38.40
2017-12-05T03:00:14.764Z,36.00
2017-12-05T03:01:14.581Z,37.60
2017-12-05T03:02:14.598Z,38.10
2017-12-05T03:03:14.784Z,35.50
2017-12-05T03:04:14.633Z,36.80
2017-12-05T03:05:14.651Z,38.80
2017-12-05T03:06:14.669Z,37.10
2017-12-05T03:07:14.685Z,38.30
2017-12-05T03:08:14.702Z,37.90
2017-12-05T03:09:14.719Z,36.20
2017-12-05T03:10:14.736Z,36.00
2017-12-05T03:11:14.754Z,37.80
2017-12-05T03:12:14.772Z,36.20
2017-12-05T03:13:14.790Z,37.60
2017-12-05T03:14:14.806Z,37.00
2017-12-05T03:15:14.823Z,35.80
2017-12-05T03:16:14.839Z,36.90
2017-12-05T03:17:14.859Z,36.20
2017-12-05T03:18:14.875Z,37.40
2017-12-05T03:19:14.892Z,35.80
2017-12-05T03:20:14.909Z,38.70
2017-12-05T03:21:14.927Z,37.30
2017-12-05T03:22:14.944Z,38.20
2017-12-05T03:23:14.960Z,36.20
2017-12-05T03:24:14.978Z,35.80
2017-12-05T03:25:14.996Z,36.10
2017-12-05T03:26:15.013Z,35.50
2017-12-05T03:27:15.030Z,37.10
2017-12-05T03:28:15.047Z,35.70
2017-12-05T03:29:15.064Z,35.50
2017-12-05T03:30:15.084Z,37.20
2017-12-05T03:31:15.101Z,35.80
2017-12-05T03:32:15.117Z,36.00
2017-12-05T03:33:15.134Z,36.50
2017-12-05T03:34:15.152Z,37.90
2017-12-05T03:35:15.168Z,37.20
2017-12-05T03:36:15.185Z,37.30
2017-12-05T03:37:15.204Z,37.90
2017-12-05T03:38:15.220Z,36.60
2017-12-05T03:39:15.238Z,38.00
2017-12-05T03:40:15.257Z,37.80
2017-12-05T03:41:15.273Z,38.90
2017-12-05T03:42:15.289Z,40.60
2017-12-05T03:43:15.305Z,38.80
2017-12-05T03:44:15.323Z,38.60
2017-12-05T03:45:15.341Z,40.00
2017-12-05T03:46:15.358Z,39.90
2017-12-05T03:47:15.375Z,40.80
2017-12-05T03:48:15.396Z,40.00
2017-12-05T03:49:15.411Z,42.00
2017-12-05T03:50:15.427Z,40.30
2017-12-05T03:51:15.445Z,41.40
2017-12-05T03:52:15.462Z,41.10
2017-12-05T03:53:15.479Z,39.90
2017-12-05T03:54:15.497Z,43.20
2017-12-05T03:55:15.513Z,42.50
2017-12-05T03:56:15.531Z,43.30
2017-12-05T03:57:15.547Z,44.20
2017-12-05T03:58:15.565Z,44.60
2017-12-05T03:59:15.582Z,46.10
2017-12-05T04:00:15.602Z,46.10
2017-12-05T04:01:15.617Z,44.80
2017-12-05T04:02:15.634Z,46.20
2017-12-05T04:03:15.650Z,46.70
2017-12-05T04:04:15.669Z,48.40
2017-12-05T04:05:15.685Z,49.90
2017-12-05T04:06:15.702Z,47.40
2017-12-05T04:07:15.720Z,49.10
2017-12-05T04:08:15.736Z,50.90
2017-12-05T04:09:15.754Z,49.90
2017-12-05T04:10:15.772Z,51.40
2017-12-05T04:11:15.792Z,52.90
2017-12-05T04:12:15.806Z,51.10
2017-12-05T04:13:15.823Z,51.50
2017-12-05T04:14:15.841Z,52.30
2017-12-05T04:15:15.856Z,52.10
2017-12-05T04:16:15.874Z,53.20
2017-12-05T04:17:15.891Z,53.20
2017-12-05T04:18:15.909Z,56.10
2017-12-05T04:19:15.925Z,54.20
2017-12-05T04:20:15.942Z,56.50
2017-12-05T04:21:15.960Z,55.20
2017-12-05T04:22:15.977Z,57.20
2017-12-05T04:23:15.995Z,59.00
2017-12-05T04:24:16.013Z,58.20
2017-12-05T04:25:16.029Z,58.10
2017-12-05T04:26:16.047Z,55.80
2017-12-05T04:27:16.062Z,58.10
2017-12-05T04:28:16.080Z,58.40
2017-12-05T04:29:16.098Z,56.40
2017-12-05T04:30:16.114Z,56.40
2017-12-05T04:31:16.131Z,55.90
2017-12-05T04:32:16.148Z,58.40
2017-12-05T04:33:16.166Z,58.50
2017-12-05T04:34:16.184Z,56.70
2017-12-05T04:35:16.200Z,57.70
2017-12-05T04:36:16.219Z,56.10
2017-12-05T04:37:16.234Z,57.00
2017-12-05T04:38:16.255Z,57.70
2017-12-05T04:39:16.268Z,58.20
2017-12-05T04:40:16.285Z,60.40
2017-12-05T04:41:16.304Z,59.80
2017-12-05T04:42:16.321Z,60.60
2017-12-05T04:43:16.337Z,59.60
2017-12-05T04:44:16.353Z,58.90
2017-12-05T04:45:16.373Z,59.50
2017-12-05T04:46:16.389Z,62.20
2017-12-05T04:47:16.406Z,59.70
2017-12-05T04:48:16.423Z,64.10
2017-12-05T04:49:16.441Z,63.80
2017-12-05T04:50:16.458Z,62.60
2017-12-05T04:51:16.474Z,62.90
2017-12-05T04:52:16.492Z,64.80
2017-12-05T04:53:16.509Z,61.30
2017-12-05T04:54:16.526Z,67.20
2017-12-05T04:55:16.543Z,64.40
2017-12-05T04:56:16.560Z,65.40
2017-12-05T04:57:16.582Z,61.90
2017-12-05T04:58:16.593Z,60.80
2017-12-05T04:59:16.611Z,61.90
2017-12-05T05:00:16.629Z,60.50
2017-12-05T05:01:16.646Z,61.80
2017-12-05T05:02:16.680Z,65.20
2017-12-05T05:03:16.679Z,60.30
2017-12-05T05:04:16.699Z,65.20
2017-12-05T05:05:16.713Z,62.10
2017-12-05T05:06:16.730Z,63.40
2017-12-05T05:07:16.752Z,63.40
2017-12-05T05:08:16.766Z,60.90
2017-12-05T05:09:16.782Z,61.00
2017-12-05T05:10:16.800Z,63.70
2017-12-05T05:11:16.816Z,60.30
2017-12-05T05:12:16.834Z,61.30
2017-12-05T05:13:16.860Z,59.40
2017-12-05T05:14:16.869Z,61.00
2017-12-05T05:15:16.885Z,59.40
2017-12-05T05:16:16.902Z,59.00
2017-12-05T05:18:16.936Z,60.90
2017-12-05T05:19:16.954Z,61.30
2017-12-05T05:20:16.970Z,59.50
2017-12-05T05:21:16.990Z,58.80
2017-12-05T05:22:17.004Z,61.40
2017-12-05T05:23:17.021Z,62.00
2017-12-05T05:24:17.039Z,61.30
2017-12-05T05:25:17.056Z,63.40
2017-12-05T05:26:17.075Z,62.00
2017-12-05T05:27:17.348Z,62.00
2017-12-05T05:28:17.109Z,61.10
2017-12-05T05:29:17.124Z,61.40
2017-12-05T05:30:17.142Z,58.40
2017-12-05T05:31:17.159Z,61.30
2017-12-05T05:32:17.176Z,61.80
2017-12-05T05:33:17.193Z,60.80
2017-12-05T05:34:17.213Z,63.10
2017-12-05T05:35:17.227Z,60.40
2017-12-05T05:36:17.245Z,60.50
2017-12-05T05:37:17.264Z,66.10
2017-12-05T05:38:17.279Z,62.20
2017-12-05T05:39:17.297Z,61.30
2017-12-05T05:40:17.313Z,61.40
2017-12-05T05:41:17.331Z,62.40
2017-12-05T05:42:17.348Z,63.50
2017-12-05T05:43:17.366Z,65.90
2017-12-05T05:44:17.384Z,67.30
2017-12-05T05:45:17.399Z,65.70
2017-12-05T05:46:17.416Z,67.10
2017-12-05T05:47:17.434Z,63.40
2017-12-05T05:48:17.451Z,65.10
2017-12-05T05:49:17.469Z,61.60
2017-12-05T05:50:17.487Z,62.80
2017-12-05T05:51:17.502Z,66.50
2017-12-05T05:52:17.520Z,63.60
2017-12-05T05:53:17.537Z,66.60
2017-12-05T05:54:17.556Z,65.30
2017-12-05T05:55:17.571Z,63.60
2017-12-05T05:56:17.592Z,61.60
2017-12-05T05:57:17.607Z,62.90
2017-12-05T05:58:17.625Z,65.50
2017-12-05T05:59:17.640Z,62.70
2017-12-05T06:00:17.658Z,63.20
2017-12-05T06:01:17.675Z,65.20
2017-12-05T06:02:17.745Z,63.90
2017-12-05T06:03:17.708Z,66.00
2017-12-05T06:04:17.726Z,67.50
2017-12-05T06:05:17.744Z,64.50
2017-12-05T06:06:17.762Z,66.00
2017-12-05T06:07:17.778Z,63.90
2017-12-05T06:08:17.796Z,67.30
2017-12-05T06:09:17.812Z,66.20
2017-12-05T06:10:17.829Z,66.40
2017-12-05T06:11:17.847Z,63.30
2017-12-05T06:12:17.864Z,68.30
2017-12-05T06:13:17.883Z,64.10
2017-12-05T06:14:17.899Z,65.90
2017-12-05T06:15:17.916Z,65.30
2017-12-05T06:16:17.933Z,61.80
2017-12-05T06:17:17.950Z,65.90
2017-12-05T06:18:17.969Z,66.90
2017-12-05T06:19:17.984Z,65.40
2017-12-05T06:20:18.003Z,66.00
2017-12-05T06:21:18.019Z,67.40
2017-12-05T06:22:18.037Z,63.80
2017-12-05T06:23:18.054Z,66.80
2017-12-05T06:24:18.071Z,63.10
2017-12-05T06:25:18.088Z,67.00
2017-12-05T06:26:18.106Z,65.90
2017-12-05T06:27:18.124Z,63.60
2017-12-05T06:28:18.140Z,65.10
2017-12-05T06:29:18.163Z,63.90
2017-12-05T06:30:18.176Z,63.60
2017-12-05T06:31:18.194Z,64.50
2017-12-05T06:32:18.210Z,64.60
2017-12-05T06:33:18.228Z,61.10
2017-12-05T06:34:18.244Z,65.00
2017-12-05T06:35:18.260Z,64.40
2017-12-05T06:36:18.279Z,66.00
2017-12-05T06:37:18.306Z,65.00
2017-12-05T06:38:18.313Z,65.20
2017-12-05T06:39:18.331Z,63.50
2017-12-05T06:40:18.347Z,60.90
2017-12-05T06:41:18.366Z,65.60
2017-12-05T06:42:18.383Z,65.50
2017-12-05T06:43:18.399Z,61.80
2017-12-05T06:44:18.416Z,67.10
2017-12-05T06:45:18.435Z,61.60
2017-12-05T06:46:18.451Z,68.80
2017-12-05T06:47:18.467Z,66.90
2017-12-05T06:48:18.486Z,64.80
2017-12-05T06:49:18.502Z,65.00
2017-12-05T06:50:18.521Z,64.00
2017-12-05T06:51:18.537Z,63.40
2017-12-05T06:52:18.554Z,62.70
2017-12-05T06:53:18.573Z,66.30
2017-12-05T06:54:18.589Z,65.10
2017-12-05T06:55:18.607Z,63.70
2017-12-05T06:56:18.623Z,62.30
2017-12-05T06:57:18.640Z,63.80
2017-12-05T06:58:18.663Z,65.60
2017-12-05T06:59:18.675Z,61.60
2017-12-05T07:00:18.692Z,65.50
2017-12-05T07:01:18.710Z,64.80
2017-12-05T07:02:18.726Z,64.30
2017-12-05T07:03:18.749Z,63.60
2017-12-05T07:04:18.761Z,62.00
2017-12-05T07:05:18.778Z,67.50
2017-12-05T07:06:18.795Z,65.40
2017-12-05T07:07:18.813Z,63.50
2017-12-05T07:08:18.830Z,63.50
2017-12-05T07:09:18.846Z,64.50
2017-12-05T07:10:18.865Z,63.80
2017-12-05T07:11:18.882Z,62.50
2017-12-05T07:12:18.899Z,63.30
2017-12-05T07:13:18.916Z,64.10
2017-12-05T07:14:18.933Z,63.50
2017-12-05T07:15:18.951Z,65.90
2017-12-05T07:16:18.967Z,60.90
2017-12-05T07:17:18.985Z,62.60
2017-12-05T07:18:19.002Z,61.00
2017-12-05T07:19:19.018Z,60.60
2017-12-05T07:20:19.035Z,61.60
2017-12-05T07:21:19.054Z,61.70
2017-12-05T07:22:19.072Z,63.50
2017-12-05T07:23:19.089Z,66.60
2017-12-05T07:24:19.104Z,62.10
2017-12-05T07:25:19.126Z,61.40
2017-12-05T07:26:19.140Z,63.30
2017-12-05T07:27:19.161Z,60.70
2017-12-05T07:28:19.174Z,63.20
2017-12-05T07:29:19.191Z,60.50
2017-12-05T07:30:19.209Z,61.50
2017-12-05T07:31:19.225Z,62.00
2017-12-05T07:32:19.242Z,63.90
2017-12-05T07:33:19.260Z,63.90
2017-12-05T07:34:19.277Z,61.30
2017-12-05T07:35:19.294Z,61.40
2017-12-05T07:36:19.312Z,65.30
2017-12-05T07:37:19.332Z,62.30
2017-12-05T07:38:19.347Z,64.00
2017-12-05T07:39:19.368Z,64.80
2017-12-05T07:40:19.380Z,66.30
2017-12-05T07:41:19.398Z,66.40
2017-12-05T07:42:19.416Z,66.40
2017-12-05T07:43:19.431Z,61.20
2017-12-05T07:44:19.450Z,66.50
2017-12-05T07:45:19.468Z,67.90
2017-12-05T07:46:19.485Z,63.10
2017-12-05T07:47:19.499Z,64.20
2017-12-05T07:48:19.518Z,64.40
2017-12-05T07:49:19.537Z,64.00
2017-12-05T07:50:19.554Z,67.10
2017-12-05T07:51:19.569Z,65.00
2017-12-05T07:52:19.611Z,66.80
2017-12-05T07:53:19.604Z,63.30
2017-12-05T07:54:19.826Z,65.40
2017-12-05T07:55:19.638Z,65.20
2017-12-05T07:56:19.656Z,64.50
2017-12-05T07:57:19.673Z,63.70
2017-12-05T07:58:19.691Z,65.30
2017-12-05T07:59:19.709Z,61.10
2017-12-05T08:00:19.726Z,64.80
2017-12-05T08:01:19.743Z,68.10
2017-12-05T08:02:19.807Z,65.70
2017-12-05T08:03:19.784Z,64.60
2017-12-05T08:04:19.796Z,64.00
2017-12-05T08:05:19.835Z,62.90
2017-12-05T08:06:19.836Z,66.80
2017-12-05T08:07:19.847Z,65.00
2017-12-05T08:08:19.865Z,67.20
2017-12-05T08:09:19.883Z,65.30
2017-12-05T08:10:19.900Z,67.00
2017-12-05T08:11:19.916Z,62.10
2017-12-05T08:12:19.935Z,64.80
2017-12-05T08:13:19.955Z,64.70
2017-12-05T08:14:19.969Z,63.70
2017-12-05T08:15:19.987Z,67.10
2017-12-05T08:16:20.007Z,66.10
2017-12-05T08:17:20.027Z,62.60
2017-12-05T08:18:20.039Z,61.10
2017-12-05T08:19:20.063Z,63.60
2017-12-05T08:20:20.079Z,64.50
2017-12-05T08:21:20.090Z,63.90
2017-12-05T08:22:20.108Z,60.30
2017-12-05T08:23:20.226Z,60.00
2017-12-05T08:24:20.147Z,64.40
2017-12-05T08:25:20.159Z,61.80
2017-12-05T08:26:20.178Z,62.70
2017-12-05T08:27:20.196Z,61.40
2017-12-05T08:28:20.213Z,60.40
2017-12-05T08:29:20.230Z,64.60
2017-12-05T08:30:20.246Z,61.00
2017-12-05T08:31:20.264Z,58.30
2017-12-05T08:32:20.281Z,65.00
2017-12-05T08:33:20.300Z,60.00
2017-12-05T08:34:20.316Z,59.80
2017-12-05T08:35:20.333Z,60.30
2017-12-05T08:36:20.351Z,60.40
2017-12-05T08:37:20.367Z,61.20
2017-12-05T08:38:20.385Z,59.70
2017-12-05T08:39:20.402Z,59.70
2017-12-05T08:40:20.421Z,63.60
2017-12-05T08:41:20.437Z,62.90
2017-12-05T08:42:20.454Z,61.60
2017-12-05T08:43:20.472Z,59.30
2017-12-05T08:44:20.491Z,61.70
2017-12-05T08:45:20.506Z,63.30
2017-12-05T08:46:20.525Z,64.90
2017-12-05T08:47:20.540Z,57.30
2017-12-05T08:48:20.558Z,57.70
2017-12-05T08:49:20.577Z,58.20
2017-12-05T08:50:20.593Z,60.00
2017-12-05T08:51:20.611Z,59.20
2017-12-05T08:52:20.627Z,56.30
2017-12-05T08:53:20.646Z,59.20
2017-12-05T08:54:20.662Z,60.40
2017-12-05T08:55:20.680Z,56.70
2017-12-05T08:56:20.698Z,57.40
2017-12-05T08:57:20.714Z,59.20
2017-12-05T08:58:20.733Z,57.00
2017-12-05T08:59:20.748Z,58.30
2017-12-05T09:00:20.765Z,60.10
2017-12-05T09:01:20.785Z,59.60
2017-12-05T09:02:20.801Z,56.20
2017-12-05T09:03:20.818Z,59.20
2017-12-05T09:04:20.836Z,58.40
2017-12-05T09:05:20.853Z,60.90
2017-12-05T09:06:20.902Z,59.00
2017-12-05T09:07:20.888Z,56.70
2017-12-05T09:08:20.905Z,57.50
2017-12-05T09:09:20.924Z,56.60
2017-12-05T09:10:20.940Z,58.40
2017-12-05T09:11:20.957Z,57.30
2017-12-05T09:12:20.975Z,55.80
2017-12-05T09:13:20.993Z,58.30
2017-12-05T09:14:21.011Z,58.10
2017-12-05T09:15:21.027Z,61.40
2017-12-05T09:16:21.045Z,58.10
2017-12-05T09:17:21.064Z,58.60
2017-12-05T09:18:21.081Z,57.30
2017-12-05T09:19:21.098Z,58.00
2017-12-05T09:20:21.115Z,57.40
2017-12-05T09:21:21.132Z,56.20
2017-12-05T09:22:21.151Z,57.30
2017-12-05T09:23:21.168Z,53.50
2017-12-05T09:24:21.186Z,55.60
2017-12-05T09:25:21.232Z,55.10
2017-12-05T09:26:21.221Z,58.60
2017-12-05T09:27:21.240Z,58.00
2017-12-05T09:28:21.256Z,56.60
2017-12-05T09:29:21.274Z,56.10
2017-12-05T09:30:21.295Z,56.70
2017-12-05T09:31:21.308Z,54.20
2017-12-05T09:32:21.326Z,54.90
2017-12-05T09:33:21.343Z,54.50
2017-12-05T09:34:21.366Z,56.00
2017-12-05T09:35:21.378Z,54.60
2017-12-05T09:36:21.397Z,52.00
2017-12-05T09:37:21.414Z,53.60
2017-12-05T09:38:21.433Z,53.10
2017-12-05T09:39:21.450Z,55.10
2017-12-05T09:40:21.469Z,54.50
2017-12-05T09:41:21.485Z,54.30
2017-12-05T09:42:21.503Z,55.80
2017-12-05T09:43:21.520Z,55.90
2017-12-05T09:44:21.538Z,53.70
2017-12-05T09:45:21.556Z,54.70
2017-12-05T09:46:21.574Z,54.70
2017-12-05T09:47:21.591Z,54.90
2017-12-05T09:48:21.609Z,53.10
2017-12-05T09:49:21.626Z,58.20
2017-12-05T09:50:21.645Z,57.00
2017-12-05T09:51:21.665Z,56.20
2017-12-05T09:52:21.680Z,56.60
2017-12-05T09:53:21.697Z,54.10
2017-12-05T09:54:21.716Z,54.20
2017-12-05T09:55:21.732Z,52.90
2017-12-05T09:56:21.751Z,52.20
2017-12-05T09:57:21.767Z,56.30
2017-12-05T09:58:21.786Z,54.70
2017-12-05T09:59:21.804Z,52.00
2017-12-05T10:00:21.820Z,54.80
2017-12-05T10:01:21.838Z,56.60
2017-12-05T10:02:21.857Z,52.90
2017-12-05T10:03:21.874Z,53.70
2017-12-05T10:04:21.891Z,53.80
2017-12-05T10:05:21.913Z,52.60
2017-12-05T10:06:21.927Z,51.70
2017-12-05T10:07:21.945Z,51.50
2017-12-05T10:08:21.962Z,51.20
2017-12-05T10:09:21.981Z,50.80
2017-12-05T10:10:21.997Z,52.30
2017-12-05T10:11:22.016Z,53.90
2017-12-05T10:12:22.034Z,53.50
2017-12-05T10:13:22.059Z,51.00
2017-12-05T10:14:22.070Z,53.10
2017-12-05T10:15:22.086Z,54.10
2017-12-05T10:16:22.105Z,52.00
2017-12-05T10:17:22.123Z,50.10
2017-12-05T10:18:22.140Z,49.00
2017-12-05T10:19:22.156Z,48.60
2017-12-05T10:20:22.476Z,49.60
2017-12-05T10:21:22.194Z,48.40
2017-12-05T10:22:22.211Z,50.50
2017-12-05T10:23:22.228Z,48.40
2017-12-05T10:24:22.247Z,51.60
2017-12-05T10:25:22.270Z,49.30
2017-12-05T10:26:22.282Z,51.10
2017-12-05T10:27:22.322Z,49.70
2017-12-05T10:28:22.318Z,48.60
2017-12-05T10:29:22.335Z,50.10
2017-12-05T10:30:22.357Z,47.70
2017-12-05T10:31:22.372Z,48.10
2017-12-05T10:32:22.390Z,49.00
2017-12-05T10:33:22.407Z,49.20
2017-12-05T10:34:22.426Z,48.60
2017-12-05T10:35:22.444Z,50.50
2017-12-05T10:36:22.460Z,49.00
2017-12-05T10:37:22.479Z,50.40
2017-12-05T10:38:22.497Z,49.10
2017-12-05T10:39:22.514Z,52.20
2017-12-05T10:40:22.534Z,50.60
2017-12-05T10:41:22.550Z,49.20
2017-12-05T10:42:22.673Z,48.90
2017-12-05T10:43:22.586Z,48.50
2017-12-05T10:44:22.604Z,50.10
2017-12-05T10:45:22.620Z,50.10
2017-12-05T10:46:22.639Z,50.10
2017-12-05T10:47:22.657Z,51.00
2017-12-05T10:48:22.775Z,50.20
2017-12-05T10:49:22.699Z,48.90
2017-12-05T10:50:22.711Z,47.50
2017-12-05T10:51:22.728Z,51.20
2017-12-05T10:52:22.747Z,48.20
2017-12-05T10:53:22.764Z,47.90
2017-12-05T10:54:22.788Z,46.80
2017-12-05T10:55:22.849Z,50.70
2017-12-05T10:56:22.818Z,49.90
2017-12-05T10:57:22.837Z,45.70
2017-12-05T10:58:22.855Z,48.60
2017-12-05T10:59:22.871Z,49.30
2017-12-05T11:00:22.889Z,47.50
2017-12-05T11:01:22.907Z,48.20
2017-12-05T11:02:22.926Z,47.80
2017-12-05T11:03:22.944Z,48.90
2017-12-05T11:04:22.962Z,46.10
2017-12-05T11:05:22.982Z,47.50
2017-12-05T11:06:22.997Z,49.00
2017-12-05T11:07:23.015Z,47.90
2017-12-05T11:08:23.032Z,45.40
2017-12-05T11:09:23.051Z,47.20
2017-12-05T11:10:23.069Z,47.70
2017-12-05T11:11:23.085Z,48.60
2017-12-05T11:12:23.104Z,46.80
2017-12-05T11:13:23.122Z,48.60
2017-12-05T11:14:23.142Z,46.10
2017-12-05T11:15:23.158Z,47.70
2017-12-05T11:16:23.179Z,46.70
2017-12-05T11:17:23.201Z,47.60
2017-12-05T11:18:23.213Z,47.20
2017-12-05T11:19:23.238Z,46.40
2017-12-05T11:20:23.248Z,48.00
2017-12-05T11:21:23.266Z,47.90
2017-12-05T11:22:23.786Z,50.40
2017-12-05T11:23:23.302Z,49.30
2017-12-05T11:24:23.353Z,47.90
2017-12-05T11:25:23.356Z,46.20
2017-12-05T11:26:23.356Z,47.20
2017-12-05T11:27:23.372Z,46.50
2017-12-05T11:28:23.399Z,45.30
2017-12-05T11:29:23.409Z,46.20
2017-12-05T11:30:23.428Z,48.20
2017-12-05T11:31:23.444Z,46.70
2017-12-05T11:32:23.463Z,45.40
2017-12-05T11:33:23.483Z,45.60
2017-12-05T11:34:23.498Z,48.40
2017-12-05T11:35:23.518Z,48.00
2017-12-05T11:36:23.535Z,55.00
2017-12-05T11:37:23.553Z,47.70
2017-12-05T11:38:23.572Z,47.40
2017-12-05T11:39:23.597Z,50.60
2017-12-05T11:40:23.608Z,46.30
2017-12-05T11:41:23.624Z,46.40
2017-12-05T11:42:23.649Z,44.70
2017-12-05T11:43:23.665Z,44.50
2017-12-05T11:44:23.679Z,44.80
2017-12-05T11:45:23.698Z,46.40
2017-12-05T11:46:23.714Z,45.00
2017-12-05T11:47:23.737Z,45.00
2017-12-05T11:48:23.750Z,43.90
2017-12-05T11:49:23.770Z,44.40
2017-12-05T11:50:23.787Z,44.00
2017-12-05T11:51:23.805Z,45.10
2017-12-05T11:52:23.823Z,44.30
2017-12-05T11:53:23.840Z,42.70
2017-12-05T11:54:23.859Z,43.60
2017-12-05T11:55:23.876Z,42.30
2017-12-05T11:56:23.894Z,44.30
2017-12-05T11:57:23.916Z,43.80
2017-12-05T11:58:23.930Z,41.80
2017-12-05T11:59:23.947Z,44.00
2017-12-05T12:00:23.966Z,40.00
2017-12-05T12:01:23.984Z,43.10
2017-12-05T12:02:24.002Z,43.60
2017-12-05T12:03:24.018Z,43.10
2017-12-05T12:04:24.038Z,42.00
2017-12-05T12:05:24.056Z,44.40
2017-12-05T12:06:24.074Z,43.20
2017-12-05T12:07:24.092Z,42.10
2017-12-05T12:08:24.111Z,42.40
2017-12-05T12:09:24.129Z,42.50
2017-12-05T12:10:24.146Z,42.40
2017-12-05T12:11:24.163Z,41.70
2017-12-05T12:12:24.182Z,41.40
2017-12-05T12:13:24.208Z,42.60
2017-12-05T12:14:24.218Z,43.00
2017-12-05T12:15:24.235Z,41.70
2017-12-05T12:16:24.254Z,38.50
2017-12-05T12:17:24.272Z,41.10
2017-12-05T12:18:24.291Z,41.10
2017-12-05T12:19:24.306Z,42.40
2017-12-05T12:20:24.327Z,39.00
2017-12-05T12:21:24.347Z,42.40
2017-12-05T12:22:24.367Z,39.00
2017-12-05T12:23:24.380Z,41.40
2017-12-05T12:24:24.397Z,40.00
2017-12-05T12:25:24.418Z,40.80
2017-12-05T12:26:24.436Z,40.40
2017-12-05T12:27:24.454Z,38.30
2017-12-05T12:28:24.470Z,37.50
2017-12-05T12:29:24.489Z,38.50
2017-12-05T12:30:24.510Z,35.20
2017-12-05T12:31:24.525Z,37.60
2017-12-05T12:32:24.543Z,37.20
2017-12-05T12:33:24.564Z,36.60
2017-12-05T12:34:24.580Z,37.00
2017-12-05T12:35:24.597Z,35.90
2017-12-05T12:36:24.616Z,36.40
2017-12-05T12:37:24.635Z,36.40
2017-12-05T12:38:24.652Z,35.50
2017-12-05T12:39:24.672Z,33.70
2017-12-05T12:40:24.688Z,34.80
2017-12-05T12:41:24.706Z,36.40
2017-12-05T12:42:24.724Z,35.00
2017-12-05T12:43:24.741Z,34.30
2017-12-05T12:44:24.759Z,34.50
2017-12-05T12:45:24.778Z,35.00
2017-12-05T12:46:24.796Z,35.00
2017-12-05T12:47:24.864Z,35.10
2017-12-05T12:48:24.832Z,35.20
2017-12-05T12:49:24.851Z,36.60
2017-12-05T12:50:24.869Z,35.70
2017-12-05T12:51:24.888Z,32.50
2017-12-05T12:52:24.904Z,32.40
2017-12-05T12:53:24.924Z,33.40